createdAt,value
2018-05-29T00:08:44.285Z,2.10
2018-05-29T00:11:16.040Z,1.77
2018-05-29T00:13:47.966Z,1.90
2018-05-29T00:16:22.733Z,2.33
2018-05-29T00:18:52.654Z,1.93
2018-05-29T00:27:15.725Z,2.00
2018-05-29T00:30:11.633Z,2.07
2018-05-29T00:36:12.005Z,2.17
2018-05-29T00:42:02.441Z,2.10
2018-05-29T00:44:37.064Z,2.03
2018-05-29T00:47:24.063Z,2.00
2018-05-29T00:50:01.776Z,2.43
2018-05-29T00:52:34.453Z,2.13
2018-05-29T00:57:45.443Z,1.90
2018-05-29T01:00:21.399Z,1.87
2018-05-29T01:02:57.255Z,2.30
2018-05-29T01:05:42.114Z,2.10
2018-05-29T01:15:05.861Z,2.57
2018-05-29T01:17:35.785Z,2.23
2018-05-29T01:26:13.285Z,2.43
2018-05-29T01:28:59.169Z,2.10
2018-05-29T01:42:56.051Z,3.90
2018-05-29T01:45:27.195Z,3.00
2018-05-29T01:50:32.658Z,2.20
2018-05-29T01:58:59.825Z,2.43
2018-05-29T02:41:56.219Z,2.43
2018-05-29T02:44:34.375Z,2.53
2018-05-29T02:47:14.015Z,2.10
2018-05-29T02:49:50.312Z,2.70
2018-05-29T03:06:42.559Z,2.23
2018-05-29T03:09:11.880Z,3.00
2018-05-29T03:11:52.017Z,2.70
2018-05-29T03:14:27.601Z,2.93
2018-05-29T03:19:44.392Z,2.80
2018-05-29T03:27:22.536Z,2.90
2018-05-29T03:30:01.666Z,2.70
2018-05-29T03:42:33.490Z,3.20
2018-05-29T03:45:09.460Z,3.13
2018-05-29T03:47:38.969Z,2.73
2018-05-29T03:56:17.494Z,3.20
2018-05-29T03:58:51.406Z,2.87
2018-05-29T04:06:47.867Z,2.83
2018-05-29T04:09:42.859Z,2.10
2018-05-29T04:17:50.890Z,2.20
2018-05-29T04:20:18.654Z,2.77
2018-05-29T04:22:46.725Z,2.20
2018-05-29T04:25:26.781Z,2.33
2018-05-29T04:27:54.742Z,2.43
2018-05-29T04:30:22.854Z,1.97
2018-05-29T04:32:51.064Z,2.10
2018-05-29T04:35:18.803Z,1.90
2018-05-29T04:37:46.899Z,1.97
2018-05-29T04:40:14.829Z,1.77
2018-05-29T04:42:42.214Z,2.23
2018-05-29T04:45:09.882Z,4.77
2018-05-29T04:47:37.321Z,3.20
2018-05-29T04:50:04.822Z,2.37
2018-05-29T04:52:34.741Z,2.80
2018-05-29T04:55:16.080Z,3.10
2018-05-29T04:57:52.647Z,2.50
2018-05-29T05:00:36.485Z,3.17
2018-05-29T05:06:02.927Z,2.73
2018-05-29T05:24:10.629Z,6.80
2018-05-29T05:26:38.294Z,9.83
2018-05-29T05:29:08.918Z,7.20
2018-05-29T05:31:36.425Z,4.83
2018-05-29T05:34:03.862Z,5.07
2018-05-29T05:36:31.357Z,2.43
2018-05-29T05:38:58.738Z,2.80
2018-05-29T05:41:26.145Z,2.80
2018-05-29T05:43:53.591Z,2.17
2018-05-29T05:46:20.994Z,2.00
2018-05-29T05:48:49.009Z,3.07
2018-05-29T05:51:16.447Z,1.87
2018-05-29T05:53:44.080Z,1.70
2018-05-29T05:56:11.491Z,1.90
2018-05-29T05:58:38.938Z,1.70
2018-05-29T06:01:06.422Z,1.53
2018-05-29T06:03:33.925Z,1.50
2018-05-29T06:06:01.344Z,1.40
2018-05-29T06:08:28.741Z,2.00
2018-05-29T06:10:56.133Z,1.30
2018-05-29T06:13:23.573Z,1.63
2018-05-29T06:15:51.255Z,1.20
2018-05-29T06:18:19.518Z,1.53
2018-05-29T06:20:46.912Z,2.50
2018-05-29T06:23:14.315Z,1.77
2018-05-29T06:25:41.762Z,1.37
2018-05-29T06:28:09.155Z,2.27
2018-05-29T06:30:36.946Z,1.13
2018-05-29T06:33:04.734Z,1.57
2018-05-29T06:35:32.122Z,1.53
2018-05-29T06:38:00.047Z,1.17
2018-05-29T06:40:27.467Z,1.00
2018-05-29T06:42:54.860Z,1.13
2018-05-29T06:45:22.354Z,1.23
2018-05-29T06:47:49.765Z,0.83
2018-05-29T06:50:17.153Z,1.20
2018-05-29T06:52:44.535Z,1.73
2018-05-29T06:55:11.946Z,1.17
2018-05-29T06:57:39.345Z,1.00
2018-05-29T07:00:07.389Z,1.80
2018-05-29T07:02:34.832Z,0.93
2018-05-29T07:05:02.214Z,1.30
2018-05-29T07:07:29.597Z,6.23
2018-05-29T07:09:57.286Z,1.63
2018-05-29T07:12:24.712Z,2.10
2018-05-29T07:14:52.169Z,1.33
2018-05-29T07:17:19.597Z,2.17
2018-05-29T07:19:46.993Z,1.30
2018-05-29T07:22:14.373Z,1.57
2018-05-29T07:24:41.823Z,1.43
2018-05-29T07:27:09.816Z,1.63
2018-05-29T07:29:37.677Z,0.87
2018-05-29T07:32:05.120Z,2.10
2018-05-29T07:34:32.691Z,0.90
2018-05-29T07:37:00.087Z,1.20
2018-05-29T07:39:27.539Z,6.17
2018-05-29T07:41:55.016Z,1.30
2018-05-29T07:44:22.402Z,1.30
2018-05-29T07:46:50.006Z,1.20
2018-05-29T07:49:17.859Z,1.20
2018-05-29T07:51:45.246Z,1.10
2018-05-29T07:54:12.810Z,1.40
2018-05-29T07:56:40.203Z,1.60
2018-05-29T07:59:07.624Z,1.33
2018-05-29T08:01:35.348Z,1.40
2018-05-29T08:04:02.743Z,1.37
2018-05-29T08:06:30.336Z,1.60
2018-05-29T08:08:58.306Z,1.40
2018-05-29T08:11:25.752Z,1.00
2018-05-29T08:13:53.461Z,1.13
2018-05-29T08:16:20.944Z,1.70
2018-05-29T08:18:48.436Z,1.03
2018-05-29T08:21:15.851Z,1.60
2018-05-29T08:23:43.377Z,2.00
2018-05-29T08:26:10.931Z,1.90
2018-05-29T08:28:38.316Z,1.40
2018-05-29T08:31:05.821Z,2.10
2018-05-29T08:33:33.171Z,1.60
2018-05-29T08:36:00.597Z,1.13
2018-05-29T08:38:27.989Z,1.40
2018-05-29T08:40:55.402Z,1.07
2018-05-29T08:43:22.778Z,1.27
2018-05-29T08:45:50.175Z,1.53
2018-05-29T08:48:17.683Z,1.20
2018-05-29T08:50:45.064Z,0.57
2018-05-29T08:53:12.505Z,1.30
2018-05-29T08:55:39.894Z,1.70
2018-05-29T08:58:07.275Z,1.50
2018-05-29T09:00:34.664Z,2.40
2018-05-29T09:03:02.191Z,1.10
2018-05-29T09:05:29.603Z,1.70
2018-05-29T09:07:57.693Z,1.70
2018-05-29T09:10:25.105Z,1.43
2018-05-29T09:12:52.796Z,1.70
2018-05-29T09:15:20.174Z,1.60
2018-05-29T09:17:47.746Z,1.40
2018-05-29T09:20:15.123Z,1.63
2018-05-29T09:22:42.602Z,2.00
2018-05-29T09:25:10.017Z,1.43
2018-05-29T09:27:37.761Z,1.50
2018-05-29T09:30:05.200Z,1.30
2018-05-29T09:32:32.815Z,1.53
2018-05-29T09:35:00.339Z,1.43
2018-05-29T09:37:27.740Z,0.83
2018-05-29T09:39:55.539Z,1.30
2018-05-29T09:42:22.964Z,1.27
2018-05-29T09:44:50.543Z,1.60
2018-05-29T09:47:17.941Z,1.57
2018-05-29T09:49:45.410Z,1.50
2018-05-29T09:52:12.872Z,1.50
2018-05-29T09:54:40.917Z,0.70
2018-05-29T09:57:08.589Z,1.50
2018-05-29T09:59:35.972Z,1.10
2018-05-29T10:02:03.372Z,1.50
2018-05-29T10:04:30.798Z,1.10
2018-05-29T10:06:58.262Z,1.30
2018-05-29T10:09:25.660Z,1.40
2018-05-29T10:11:53.056Z,1.67
2018-05-29T10:14:20.493Z,1.10
2018-05-29T10:16:47.877Z,1.67
2018-05-29T10:19:15.273Z,1.63
2018-05-29T10:21:42.889Z,1.87
2018-05-29T10:24:10.385Z,1.63
2018-05-29T10:26:37.805Z,1.47
2018-05-29T10:29:05.192Z,2.00
2018-05-29T10:31:32.600Z,1.67
2018-05-29T10:34:00.294Z,1.60
2018-05-29T10:36:27.690Z,2.10
2018-05-29T10:38:55.899Z,1.10
2018-05-29T10:41:23.391Z,1.73
2018-05-29T10:43:50.944Z,2.43
2018-05-29T10:46:19.147Z,1.90
2018-05-29T10:48:46.534Z,1.37
2018-05-29T10:51:14.076Z,2.10
2018-05-29T10:53:41.801Z,2.37
2018-05-29T10:56:09.206Z,2.10
2018-05-29T10:58:36.590Z,2.00
2018-05-29T11:01:04.333Z,2.23
2018-05-29T11:03:32.431Z,1.83
2018-05-29T11:06:00.642Z,2.07
2018-05-29T11:08:28.080Z,2.17
2018-05-29T11:10:55.834Z,2.10
2018-05-29T11:13:23.225Z,3.13
2018-05-29T11:15:50.649Z,1.90
2018-05-29T11:18:18.132Z,2.27
2018-05-29T11:20:45.569Z,2.60
2018-05-29T11:23:12.995Z,2.20
2018-05-29T11:25:40.434Z,2.47
2018-05-29T11:28:07.825Z,2.40
2018-05-29T11:30:35.200Z,2.40
2018-05-29T11:33:02.704Z,2.60
2018-05-29T11:35:30.774Z,2.00
2018-05-29T11:37:58.176Z,2.73
2018-05-29T11:40:25.604Z,2.20
2018-05-29T11:42:53.073Z,2.70
2018-05-29T11:45:20.467Z,2.80
2018-05-29T11:47:47.998Z,2.50
2018-05-29T11:50:15.401Z,2.50
2018-05-29T11:52:42.785Z,4.30
2018-05-29T11:55:11.018Z,2.57
2018-05-29T11:57:38.401Z,2.87
2018-05-29T12:00:06.581Z,2.60
2018-05-29T12:02:34.172Z,4.37
2018-05-29T12:05:01.398Z,2.43
2018-05-29T12:07:28.913Z,2.20
2018-05-29T12:09:56.316Z,2.40
2018-05-29T12:12:25.010Z,2.43
2018-05-29T12:14:52.419Z,2.73
2018-05-29T12:17:19.861Z,2.50
2018-05-29T12:19:47.257Z,3.30
2018-05-29T12:22:15.712Z,1.93
2018-05-29T12:24:43.611Z,3.50
2018-05-29T12:27:11.041Z,2.60
2018-05-29T12:29:39.133Z,3.70
2018-05-29T12:32:08.926Z,2.77
2018-05-29T12:34:37.273Z,5.80
2018-05-29T12:37:06.092Z,2.40
2018-05-29T12:42:12.591Z,2.70
2018-05-29T12:44:41.445Z,2.60
2018-05-29T12:47:11.302Z,2.40
2018-05-29T12:49:40.199Z,2.77
2018-05-29T12:52:08.993Z,2.73
2018-05-29T12:54:42.388Z,3.40
2018-05-29T12:57:10.161Z,3.07
2018-05-29T12:59:39.966Z,2.67
2018-05-29T13:02:08.873Z,3.20
2018-05-29T13:04:37.737Z,2.80
2018-05-29T13:07:06.626Z,2.60
2018-05-29T13:09:34.736Z,2.50
2018-05-29T13:12:09.566Z,2.87
2018-05-29T13:14:38.255Z,3.20
2018-05-29T13:17:06.231Z,2.93
2018-05-29T13:19:36.968Z,3.30
2018-05-29T13:22:04.838Z,3.80
2018-05-29T13:24:34.450Z,2.77
2018-05-29T13:27:02.857Z,3.00
2018-05-29T13:32:15.549Z,3.27
2018-05-29T13:35:04.015Z,3.50
2018-05-29T13:37:32.192Z,2.90
2018-05-29T13:40:00.657Z,3.07
2018-05-29T13:42:31.823Z,3.33
2018-05-29T13:45:09.921Z,3.00
2018-05-29T13:47:39.208Z,3.73
2018-05-29T13:50:13.805Z,3.37
2018-05-29T13:52:46.635Z,3.30
2018-05-29T13:55:21.875Z,3.20
2018-05-29T14:07:15.893Z,2.90
2018-05-29T14:12:20.501Z,3.00
2018-05-29T14:14:49.761Z,3.40
2018-05-29T14:17:33.540Z,3.20
2018-05-29T14:20:07.349Z,3.30
2018-05-29T14:22:36.344Z,3.27
2018-05-29T14:25:05.955Z,5.97
2018-05-29T14:27:39.047Z,3.07
2018-05-29T14:30:07.838Z,3.10
2018-05-29T14:32:36.537Z,3.20
2018-05-29T14:35:06.754Z,2.67
2018-05-29T14:37:34.237Z,2.70
2018-05-29T14:40:02.058Z,2.17
2018-05-29T14:42:29.504Z,2.07
2018-05-29T14:44:57.018Z,2.27
2018-05-29T14:47:24.414Z,2.20
2018-05-29T14:49:51.883Z,2.57
2018-05-29T14:52:19.322Z,2.83
2018-05-29T14:54:46.877Z,2.60
2018-05-29T14:57:14.437Z,2.40
2018-05-29T14:59:41.896Z,2.97
2018-05-29T15:02:09.339Z,2.30
2018-05-29T15:04:36.849Z,2.57
2018-05-29T15:07:05.159Z,2.90
2018-05-29T15:09:32.769Z,2.47
2018-05-29T15:12:00.897Z,2.50
2018-05-29T15:14:28.545Z,3.00
2018-05-29T15:16:55.939Z,2.50
2018-05-29T15:19:24.079Z,2.87
2018-05-29T15:21:51.652Z,2.43
2018-05-29T15:24:19.421Z,2.77
2018-05-29T15:26:47.153Z,3.47
2018-05-29T15:29:15.255Z,2.93
2018-05-29T15:31:42.894Z,3.00
2018-05-29T15:34:10.460Z,3.33
2018-05-29T15:36:38.283Z,4.23
2018-05-29T15:39:06.138Z,4.63
2018-05-29T15:41:33.870Z,4.00
2018-05-29T15:44:01.479Z,4.20
2018-05-29T15:46:29.115Z,4.17
2018-05-29T15:48:58.208Z,3.90
2018-05-29T15:51:26.034Z,3.20
2018-05-29T15:53:53.543Z,3.70
2018-05-29T15:56:21.084Z,3.73
2018-05-29T15:58:49.207Z,2.97
2018-05-29T16:01:16.746Z,3.53
2018-05-29T16:03:44.469Z,2.97
2018-05-29T16:06:12.179Z,3.27
2018-05-29T16:08:39.847Z,3.13
2018-05-29T16:11:07.723Z,3.00
2018-05-29T16:13:35.594Z,3.03
2018-05-29T16:16:03.107Z,3.23
2018-05-29T16:18:30.884Z,2.80
2018-05-29T16:20:58.539Z,3.83
2018-05-29T16:23:26.054Z,3.20
2018-05-29T16:25:53.514Z,3.33
2018-05-29T16:28:21.758Z,3.30
2018-05-29T16:30:50.186Z,3.30
2018-05-29T16:33:17.747Z,3.17
2018-05-29T16:35:45.582Z,3.07
2018-05-29T16:38:13.199Z,3.10
2018-05-29T16:40:40.815Z,3.13
2018-05-29T16:43:08.820Z,3.27
2018-05-29T16:45:36.838Z,3.40
2018-05-29T16:48:04.591Z,3.40
2018-05-29T16:50:32.679Z,3.70
2018-05-29T16:53:00.575Z,3.03
2018-05-29T16:55:28.640Z,3.30
2018-05-29T16:57:56.407Z,3.30
2018-05-29T17:00:24.138Z,3.60
2018-05-29T17:02:51.938Z,3.50
2018-05-29T17:05:19.896Z,3.10
2018-05-29T17:07:48.007Z,3.33
2018-05-29T17:10:15.624Z,3.33
2018-05-29T17:12:43.394Z,3.53
2018-05-29T17:15:11.517Z,3.90
2018-05-29T17:17:39.514Z,4.03
2018-05-29T17:20:06.944Z,3.30
2018-05-29T17:22:34.599Z,2.93
2018-05-29T17:25:02.208Z,3.07
2018-05-29T17:27:29.796Z,3.07
2018-05-29T17:29:57.925Z,3.97
2018-05-29T17:32:25.977Z,3.87
2018-05-29T17:34:54.184Z,3.47
2018-05-29T17:37:21.708Z,3.43
2018-05-29T17:39:50.738Z,3.03
2018-05-29T17:42:18.814Z,3.23
2018-05-29T17:44:46.854Z,3.50
2018-05-29T17:47:15.166Z,3.40
2018-05-29T17:49:43.298Z,3.37
2018-05-29T17:52:11.422Z,3.63
2018-05-29T17:54:39.307Z,3.20
2018-05-29T17:57:07.463Z,2.80
2018-05-29T17:59:35.818Z,3.27
2018-05-29T18:02:03.374Z,3.43
2018-05-29T18:04:30.871Z,3.40
2018-05-29T18:06:58.299Z,3.60
2018-05-29T18:09:25.772Z,3.63
2018-05-29T18:11:53.756Z,3.03
2018-05-29T18:14:21.244Z,4.00
2018-05-29T18:16:48.806Z,3.27
2018-05-29T18:19:16.214Z,3.67
2018-05-29T18:21:44.305Z,3.17
2018-05-29T18:24:11.768Z,3.43
2018-05-29T18:26:39.231Z,3.30
2018-05-29T18:29:07.279Z,3.13
2018-05-29T18:31:34.769Z,3.10
2018-05-29T18:34:02.927Z,3.30
2018-05-29T18:36:30.449Z,4.50
2018-05-29T18:38:57.978Z,3.60
2018-05-29T18:41:25.439Z,3.13
2018-05-29T18:43:52.844Z,2.80
2018-05-29T18:46:20.394Z,3.27
2018-05-29T18:48:47.862Z,3.17
2018-05-29T18:51:15.326Z,3.50
2018-05-29T18:53:42.792Z,3.47
2018-05-29T18:56:10.324Z,3.50
2018-05-29T18:58:37.906Z,3.57
2018-05-29T19:01:05.741Z,3.40
2018-05-29T19:03:34.225Z,3.67
2018-05-29T19:06:02.181Z,3.37
2018-05-29T19:08:29.779Z,3.33
2018-05-29T19:10:57.554Z,3.77
2018-05-29T19:13:26.782Z,4.10
2018-05-29T19:15:54.873Z,3.67
2018-05-29T19:18:23.637Z,3.60
2018-05-29T19:20:51.146Z,3.57
2018-05-29T19:23:18.851Z,3.47
2018-05-29T19:25:46.255Z,3.77
2018-05-29T19:28:14.338Z,3.53
2018-05-29T19:30:41.995Z,3.40
2018-05-29T19:33:09.444Z,3.50
2018-05-29T19:35:37.605Z,3.60
2018-05-29T19:38:05.092Z,3.93
2018-05-29T19:40:32.618Z,3.43
2018-05-29T19:43:00.080Z,2.97
2018-05-29T19:45:28.299Z,4.27
2018-05-29T19:47:55.767Z,3.50
2018-05-29T19:50:30.440Z,4.10
2018-05-29T19:53:02.249Z,4.33
2018-05-29T19:55:44.256Z,3.87
2018-05-29T19:58:29.870Z,4.90
2018-05-29T20:03:45.159Z,4.10
2018-05-29T20:26:24.971Z,4.20
2018-05-29T20:45:58.958Z,4.30
2018-05-29T20:48:27.725Z,4.37
2018-05-29T20:50:57.933Z,4.97
2018-05-29T20:53:39.431Z,4.57
2018-05-29T20:56:23.379Z,4.67
2018-05-29T21:07:37.747Z,5.50
2018-05-29T21:10:07.143Z,5.53
2018-05-29T21:12:40.755Z,5.37
2018-05-29T21:15:47.925Z,5.40
2018-05-29T21:44:33.878Z,5.13
2018-05-29T22:15:52.209Z,5.63
2018-05-29T22:18:21.818Z,5.57
